createdAt,value
2017-07-03T00:00:38.324Z,1021.57
2017-07-03T00:01:38.968Z,1021.53
2017-07-03T00:02:39.761Z,1021.54
2017-07-03T00:03:40.401Z,1021.45
2017-07-03T00:04:41.043Z,1021.50
2017-07-03T00:05:41.687Z,1021.48
2017-07-03T00:06:42.330Z,1021.51
2017-07-03T00:07:42.974Z,1021.53
2017-07-03T00:08:43.617Z,1021.44
2017-07-03T00:09:44.259Z,1021.37
2017-07-03T00:10:44.903Z,1021.42
2017-07-03T00:11:45.744Z,1021.33
2017-07-03T00:12:46.390Z,1021.44
2017-07-03T00:13:47.034Z,1021.40
2017-07-03T00:14:47.678Z,1021.36
2017-07-03T00:15:48.319Z,1021.39
2017-07-03T00:16:48.959Z,1021.38
2017-07-03T00:17:49.603Z,1021.28
2017-07-03T00:18:50.244Z,1021.24
2017-07-03T00:19:51.086Z,1021.36
2017-07-03T00:20:51.729Z,1021.34
2017-07-03T00:21:52.369Z,1021.23
2017-07-03T00:22:53.012Z,1021.26
2017-07-03T00:23:53.654Z,1021.28
2017-07-03T00:24:54.299Z,1021.26
2017-07-03T00:25:54.943Z,1021.26
2017-07-03T00:26:55.582Z,1021.26
2017-07-03T00:27:56.377Z,1021.23
2017-07-03T00:28:57.021Z,1021.17
2017-07-03T00:29:57.662Z,1021.17
2017-07-03T00:30:58.304Z,1021.26
2017-07-03T00:31:58.946Z,1021.27
2017-07-03T00:32:59.588Z,1021.28
2017-07-03T00:34:00.229Z,1021.24
2017-07-03T00:35:00.871Z,1021.29
2017-07-03T00:36:01.767Z,1021.24
2017-07-03T00:37:02.407Z,1021.29
2017-07-03T00:38:03.052Z,1021.22
2017-07-03T00:39:03.692Z,1021.23
2017-07-03T00:40:04.334Z,1021.26
2017-07-03T00:41:04.979Z,1021.16
2017-07-03T00:42:05.621Z,1021.18
2017-07-03T00:43:06.267Z,1021.21
2017-07-03T00:44:07.103Z,1021.19
2017-07-03T00:45:07.744Z,1021.22
2017-07-03T00:46:08.388Z,1021.24
2017-07-03T00:47:09.034Z,1021.11
2017-07-03T00:48:09.677Z,1021.14
2017-07-03T00:49:10.321Z,1021.18
2017-07-03T00:50:10.962Z,1021.12
2017-07-03T00:51:11.603Z,1021.10
2017-07-03T00:52:12.244Z,1021.14
2017-07-03T00:53:13.088Z,1021.19
2017-07-03T00:54:13.729Z,1021.15
2017-07-03T00:55:14.370Z,1021.17
2017-07-03T00:56:15.015Z,1021.14
2017-07-03T00:57:15.655Z,1021.13
2017-07-03T00:58:16.297Z,1021.17
2017-07-03T00:59:16.941Z,1021.16
2017-07-03T01:00:17.587Z,1021.16
2017-07-03T01:01:18.628Z,1021.13
2017-07-03T01:02:19.271Z,1021.13
2017-07-03T01:03:19.915Z,1021.13
2017-07-03T01:04:20.505Z,1021.10
2017-07-03T01:05:21.148Z,1021.15
2017-07-03T01:06:21.791Z,1021.13
2017-07-03T01:07:22.433Z,1021.10
2017-07-03T01:08:23.078Z,1021.05
2017-07-03T01:09:23.923Z,1021.10
2017-07-03T01:10:24.565Z,1021.03
2017-07-03T01:11:25.209Z,1021.08
2017-07-03T01:12:25.849Z,1021.10
2017-07-03T01:13:26.492Z,1021.05
2017-07-03T01:14:27.136Z,1021.05
2017-07-03T01:15:27.780Z,1021.08
2017-07-03T01:16:28.422Z,1021.10
2017-07-03T01:17:29.213Z,1021.05
2017-07-03T01:18:29.856Z,1020.98
2017-07-03T01:19:30.497Z,1020.95
2017-07-03T01:20:31.139Z,1021.01
2017-07-03T01:21:31.781Z,1021.02
2017-07-03T01:22:32.425Z,1021.00
2017-07-03T01:23:33.065Z,1020.95
2017-07-03T01:24:33.707Z,1020.96
2017-07-03T01:25:34.350Z,1020.96
2017-07-03T01:26:35.192Z,1020.99
2017-07-03T01:27:35.834Z,1020.87
2017-07-03T01:28:36.477Z,1020.91
2017-07-03T01:29:37.119Z,1020.96
2017-07-03T01:30:37.765Z,1020.93
2017-07-03T01:31:38.408Z,1020.93
2017-07-03T01:32:39.047Z,1020.90
2017-07-03T01:33:39.691Z,1020.92
2017-07-03T01:34:40.533Z,1020.96
2017-07-03T01:35:41.179Z,1020.84
2017-07-03T01:36:41.820Z,1020.88
2017-07-03T01:37:42.460Z,1020.88
2017-07-03T01:38:43.102Z,1020.90
2017-07-03T01:39:43.755Z,1020.88
2017-07-03T01:40:44.398Z,1020.83
2017-07-03T01:41:45.041Z,1020.90
2017-07-03T01:42:45.881Z,1020.83
2017-07-03T01:43:46.523Z,1020.82
2017-07-03T01:44:47.166Z,1020.87
2017-07-03T01:45:47.807Z,1020.90
2017-07-03T01:46:48.451Z,1020.85
2017-07-03T01:47:49.092Z,1020.83
2017-07-03T01:48:49.737Z,1020.86
2017-07-03T01:49:50.381Z,1020.82
2017-07-03T01:50:51.223Z,1020.82
2017-07-03T01:51:51.867Z,1020.82
2017-07-03T01:52:52.507Z,1020.85
2017-07-03T01:53:53.150Z,1020.80
2017-07-03T01:54:53.795Z,1020.77
2017-07-03T01:55:54.437Z,1020.77
2017-07-03T01:56:55.079Z,1020.74
2017-07-03T01:57:55.719Z,1020.73
2017-07-03T01:58:56.362Z,1020.77
2017-07-03T01:59:57.203Z,1020.75
2017-07-03T02:00:57.847Z,1020.80
2017-07-03T02:01:58.486Z,1020.80
2017-07-03T02:02:59.200Z,1020.79
2017-07-03T02:03:59.844Z,1020.80
2017-07-03T02:05:00.483Z,1020.82
2017-07-03T02:06:01.127Z,1020.82
2017-07-03T02:07:01.768Z,1020.84
2017-07-03T02:08:02.609Z,1020.76
2017-07-03T02:09:03.253Z,1020.81
2017-07-03T02:10:03.894Z,1020.75
2017-07-03T02:11:04.537Z,1020.71
2017-07-03T02:12:05.178Z,1020.70
2017-07-03T02:13:05.819Z,1020.75
2017-07-03T02:14:06.462Z,1020.73
2017-07-03T02:15:07.109Z,1020.70
2017-07-03T02:16:07.898Z,1020.69
2017-07-03T02:17:08.540Z,1020.66
2017-07-03T02:18:09.182Z,1020.66
2017-07-03T02:19:09.824Z,1020.72
2017-07-03T02:20:10.470Z,1020.66
2017-07-03T02:21:11.110Z,1020.69
2017-07-03T02:22:11.751Z,1020.75
2017-07-03T02:23:12.393Z,1020.78
2017-07-03T02:24:13.234Z,1020.73
2017-07-03T02:25:13.877Z,1020.73
2017-07-03T02:26:14.518Z,1020.66
2017-07-03T02:27:15.160Z,1020.59
2017-07-03T02:28:15.803Z,1020.66
2017-07-03T02:29:16.445Z,1020.67
2017-07-03T02:30:17.090Z,1020.68
2017-07-03T02:31:17.732Z,1020.61
2017-07-03T02:32:18.525Z,1020.70
2017-07-03T02:33:19.167Z,1020.61
2017-07-03T02:34:19.808Z,1020.61
2017-07-03T02:35:20.452Z,1020.61
2017-07-03T02:36:21.097Z,1020.56
2017-07-03T02:37:21.737Z,1020.62
2017-07-03T02:38:22.381Z,1020.57
2017-07-03T02:39:23.024Z,1020.53
2017-07-03T02:40:23.666Z,1020.57
2017-07-03T02:41:24.507Z,1020.57
2017-07-03T02:42:25.148Z,1020.63
2017-07-03T02:43:25.790Z,1020.58
2017-07-03T02:44:26.431Z,1020.55
2017-07-03T02:45:27.073Z,1020.58
2017-07-03T02:46:27.721Z,1020.55
2017-07-03T02:47:28.361Z,1020.49
2017-07-03T02:48:29.004Z,1020.55
2017-07-03T02:49:29.847Z,1020.51
2017-07-03T02:50:30.489Z,1020.50
2017-07-03T02:51:31.132Z,1020.42
2017-07-03T02:52:31.775Z,1020.53
2017-07-03T02:53:32.420Z,1020.53
2017-07-03T02:54:33.063Z,1020.50
2017-07-03T02:55:33.703Z,1020.46
2017-07-03T02:56:34.350Z,1020.50
2017-07-03T02:57:35.143Z,1020.46
2017-07-03T02:58:35.787Z,1020.41
2017-07-03T02:59:36.428Z,1020.44
2017-07-03T03:00:37.070Z,1020.48
2017-07-03T03:01:37.711Z,1020.45
2017-07-03T03:02:38.353Z,1020.45
2017-07-03T03:03:38.944Z,1020.41
2017-07-03T03:04:39.587Z,1020.51
2017-07-03T03:05:40.429Z,1020.43
2017-07-03T03:06:41.073Z,1020.52
2017-07-03T03:07:41.715Z,1020.38
2017-07-03T03:08:42.356Z,1020.40
2017-07-03T03:09:43.001Z,1020.41
2017-07-03T03:10:43.642Z,1020.38
2017-07-03T03:11:44.282Z,1020.41
2017-07-03T03:12:44.926Z,1020.36
2017-07-03T03:13:45.569Z,1020.41
2017-07-03T03:14:46.361Z,1020.41
2017-07-03T03:15:47.003Z,1020.33
2017-07-03T03:16:47.644Z,1020.22
2017-07-03T03:17:48.285Z,1020.34
2017-07-03T03:18:48.930Z,1020.24
2017-07-03T03:19:49.571Z,1020.29
2017-07-03T03:20:50.219Z,1020.17
2017-07-03T03:21:50.859Z,1020.33
2017-07-03T03:22:51.698Z,1020.33
2017-07-03T03:23:52.340Z,1020.25
2017-07-03T03:24:52.987Z,1020.26
2017-07-03T03:25:53.626Z,1020.23
2017-07-03T03:26:54.219Z,1020.29
2017-07-03T03:27:54.862Z,1020.23
2017-07-03T03:28:55.504Z,1020.28
2017-07-03T03:29:56.152Z,1020.30
2017-07-03T03:30:56.994Z,1020.21
2017-07-03T03:31:57.637Z,1020.18
2017-07-03T03:32:58.279Z,1020.26
2017-07-03T03:33:58.920Z,1020.25
2017-07-03T03:34:59.564Z,1020.19
2017-07-03T03:36:00.207Z,1020.23
2017-07-03T03:37:00.851Z,1020.18
2017-07-03T03:38:01.494Z,1020.22
2017-07-03T03:39:02.286Z,1020.36
2017-07-03T03:40:02.931Z,1020.27
2017-07-03T03:41:03.573Z,1020.33
2017-07-03T03:42:04.217Z,1020.36
2017-07-03T03:43:04.859Z,1020.31
2017-07-03T03:44:05.503Z,1020.37
2017-07-03T03:45:06.143Z,1020.48
2017-07-03T03:46:06.787Z,1020.47
2017-07-03T03:47:07.628Z,1020.43
2017-07-03T03:48:08.271Z,1020.40
2017-07-03T03:49:08.915Z,1020.39
2017-07-03T03:50:09.554Z,1020.41
2017-07-03T03:51:10.196Z,1020.38
2017-07-03T03:52:10.838Z,1020.40
2017-07-03T03:53:11.479Z,1020.41
2017-07-03T03:54:12.123Z,1020.41
2017-07-03T03:55:12.765Z,1020.47
2017-07-03T03:56:13.708Z,1020.34
2017-07-03T03:57:14.349Z,1020.35
2017-07-03T03:58:14.990Z,1020.32
2017-07-03T03:59:15.635Z,1020.32
2017-07-03T04:00:16.275Z,1020.22
2017-07-03T04:01:16.918Z,1020.22
2017-07-03T04:02:17.561Z,1020.21
2017-07-03T04:03:18.154Z,1020.24
2017-07-03T04:04:18.947Z,1020.26
2017-07-03T04:05:19.589Z,1020.20
2017-07-03T04:06:20.231Z,1020.20
2017-07-03T04:07:20.874Z,1020.22
2017-07-03T04:08:21.517Z,1020.22
2017-07-03T04:09:22.159Z,1020.20
2017-07-03T04:10:22.801Z,1020.19
2017-07-03T04:11:23.446Z,1020.22
2017-07-03T04:12:24.334Z,1020.24
2017-07-03T04:13:24.978Z,1020.18
2017-07-03T04:14:25.620Z,1020.16
2017-07-03T04:15:26.260Z,1020.20
2017-07-03T04:16:26.903Z,1020.19
2017-07-03T04:17:27.543Z,1020.19
2017-07-03T04:18:28.188Z,1020.23
2017-07-03T04:19:28.833Z,1020.27
2017-07-03T04:20:29.675Z,1020.25
2017-07-03T04:21:30.317Z,1020.34
2017-07-03T04:22:30.958Z,1020.26
2017-07-03T04:23:31.600Z,1020.24
2017-07-03T04:24:32.245Z,1020.26
2017-07-03T04:25:32.887Z,1020.17
2017-07-03T04:26:33.529Z,1020.26
2017-07-03T04:27:34.170Z,1020.21
2017-07-03T04:28:34.813Z,1020.21
2017-07-03T04:29:35.654Z,1020.23
2017-07-03T04:30:36.298Z,1020.25
2017-07-03T04:31:36.937Z,1020.20
2017-07-03T04:32:37.579Z,1020.19
2017-07-03T04:33:38.222Z,1020.28
2017-07-03T04:34:38.862Z,1020.29
2017-07-03T04:35:39.505Z,1020.35
2017-07-03T04:36:40.147Z,1020.31
2017-07-03T04:37:40.989Z,1020.36
2017-07-03T04:38:41.631Z,1020.27
2017-07-03T04:39:42.276Z,1020.32
2017-07-03T04:40:42.918Z,1020.28
2017-07-03T04:41:43.562Z,1020.27
2017-07-03T04:42:44.204Z,1020.26
2017-07-03T04:43:44.844Z,1020.28
2017-07-03T04:44:45.487Z,1020.26
2017-07-03T04:45:46.282Z,1020.33
2017-07-03T04:46:46.923Z,1020.34
2017-07-03T04:47:47.563Z,1020.28
2017-07-03T04:48:48.205Z,1020.28
2017-07-03T04:49:48.850Z,1020.24
2017-07-03T04:50:49.489Z,1020.22
2017-07-03T04:51:50.138Z,1020.32
2017-07-03T04:52:50.775Z,1020.23
2017-07-03T04:53:51.621Z,1020.23
2017-07-03T04:54:52.261Z,1020.23
2017-07-03T04:55:52.904Z,1020.29
2017-07-03T04:56:53.547Z,1020.30
2017-07-03T04:57:54.189Z,1020.32
2017-07-03T04:58:54.831Z,1020.27
2017-07-03T04:59:55.476Z,1020.28
2017-07-03T05:00:56.115Z,1020.26
2017-07-03T05:01:56.909Z,1020.19
2017-07-03T05:02:57.601Z,1020.30
2017-07-03T05:03:58.245Z,1020.27
2017-07-03T05:04:58.887Z,1020.23
2017-07-03T05:05:59.530Z,1020.31
2017-07-03T05:07:00.173Z,1020.25
2017-07-03T05:08:00.816Z,1020.25
2017-07-03T05:09:01.456Z,1020.25
2017-07-03T05:10:02.097Z,1020.25
2017-07-03T05:11:02.990Z,1020.22
2017-07-03T05:12:03.632Z,1020.20
2017-07-03T05:13:04.273Z,1020.22
2017-07-03T05:14:04.917Z,1020.22
2017-07-03T05:15:05.555Z,1020.21
2017-07-03T05:16:06.197Z,1020.25
2017-07-03T05:17:06.841Z,1020.26
2017-07-03T05:18:07.483Z,1020.26
2017-07-03T05:19:08.324Z,1020.28
2017-07-03T05:20:08.968Z,1020.20
2017-07-03T05:21:09.608Z,1020.27
2017-07-03T05:22:10.252Z,1020.22
2017-07-03T05:23:10.895Z,1020.17
2017-07-03T05:24:11.536Z,1020.21
2017-07-03T05:25:12.179Z,1020.21
2017-07-03T05:26:12.822Z,1020.18
2017-07-03T05:27:13.662Z,1020.24
2017-07-03T05:28:14.308Z,1020.15
2017-07-03T05:29:14.947Z,1020.21
2017-07-03T05:30:15.588Z,1020.23
2017-07-03T05:31:16.231Z,1020.18
2017-07-03T05:32:16.873Z,1020.22
2017-07-03T05:33:17.513Z,1020.26
2017-07-03T05:34:18.157Z,1020.27
2017-07-03T05:35:19.049Z,1020.26
2017-07-03T05:36:19.695Z,1020.23
2017-07-03T05:37:20.335Z,1020.22
2017-07-03T05:38:20.976Z,1020.20
2017-07-03T05:39:21.619Z,1020.24
2017-07-03T05:40:22.263Z,1020.24
2017-07-03T05:41:22.906Z,1020.28
2017-07-03T05:42:23.550Z,1020.27
2017-07-03T05:43:24.193Z,1020.22
2017-07-03T05:44:24.982Z,1020.35
2017-07-03T05:45:25.627Z,1020.26
2017-07-03T05:46:26.270Z,1020.31
2017-07-03T05:47:26.911Z,1020.30
2017-07-03T05:48:27.554Z,1020.30
2017-07-03T05:49:28.198Z,1020.35
2017-07-03T05:50:28.840Z,1020.30
2017-07-03T05:51:29.479Z,1020.38
2017-07-03T05:52:30.372Z,1020.33
2017-07-03T05:53:31.014Z,1020.38
2017-07-03T05:54:31.655Z,1020.37
2017-07-03T05:55:32.297Z,1020.46
2017-07-03T05:56:32.939Z,1020.41
2017-07-03T05:57:33.583Z,1020.39
2017-07-03T05:58:34.227Z,1020.48
2017-07-03T05:59:34.871Z,1020.40
2017-07-03T06:00:35.713Z,1020.48
2017-07-03T06:01:36.358Z,1020.41
2017-07-03T06:02:36.999Z,1020.45
2017-07-03T06:03:37.641Z,1020.46
2017-07-03T06:04:38.284Z,1020.44
2017-07-03T06:05:38.926Z,1020.51
2017-07-03T06:06:39.568Z,1020.53
2017-07-03T06:07:40.214Z,1020.45
2017-07-03T06:08:41.051Z,1020.50
2017-07-03T06:09:41.694Z,1020.40
2017-07-03T06:10:42.340Z,1020.40
2017-07-03T06:11:42.983Z,1020.46
2017-07-03T06:12:43.626Z,1020.53
2017-07-03T06:13:44.267Z,1020.48
2017-07-03T06:14:44.909Z,1020.53
2017-07-03T06:15:45.549Z,1020.48
2017-07-03T06:16:46.394Z,1020.53
2017-07-03T06:17:47.035Z,1020.54
2017-07-03T06:18:47.679Z,1020.47
2017-07-03T06:19:48.319Z,1020.45
2017-07-03T06:20:48.961Z,1020.50
2017-07-03T06:21:49.604Z,1020.55
2017-07-03T06:22:50.248Z,1020.53
2017-07-03T06:23:50.889Z,1020.48
2017-07-03T06:24:51.529Z,1020.55
2017-07-03T06:25:52.375Z,1020.49
2017-07-03T06:26:53.076Z,1020.56
2017-07-03T06:27:53.720Z,1020.49
2017-07-03T06:28:54.362Z,1020.47
2017-07-03T06:29:55.010Z,1020.56
2017-07-03T06:30:55.649Z,1020.48
2017-07-03T06:31:56.293Z,1020.52
2017-07-03T06:32:56.934Z,1020.53
2017-07-03T06:33:57.727Z,1020.46
2017-07-03T06:34:58.371Z,1020.49
2017-07-03T06:35:59.011Z,1020.51
2017-07-03T06:36:59.652Z,1020.51
2017-07-03T06:38:00.294Z,1020.47
2017-07-03T06:39:00.937Z,1020.49
2017-07-03T06:40:01.578Z,1020.51
2017-07-03T06:41:02.222Z,1020.52
2017-07-03T06:42:03.067Z,1020.46
2017-07-03T06:43:03.710Z,1020.47
2017-07-03T06:44:04.351Z,1020.50
2017-07-03T06:45:04.992Z,1020.52
2017-07-03T06:46:05.636Z,1020.52
2017-07-03T06:47:06.279Z,1020.50
2017-07-03T06:48:06.920Z,1020.50
2017-07-03T06:49:07.562Z,1020.57
2017-07-03T06:50:08.354Z,1020.46
2017-07-03T06:51:08.997Z,1020.57
2017-07-03T06:52:09.641Z,1020.54
2017-07-03T06:53:10.281Z,1020.52
2017-07-03T06:54:10.923Z,1020.56
2017-07-03T06:55:11.565Z,1020.56
2017-07-03T06:56:12.207Z,1020.47
2017-07-03T06:57:12.853Z,1020.59
2017-07-03T06:58:13.495Z,1020.60
2017-07-03T06:59:14.390Z,1020.56
2017-07-03T07:00:15.029Z,1020.59
2017-07-03T07:01:15.670Z,1020.62
2017-07-03T07:02:16.313Z,1020.61
2017-07-03T07:03:16.959Z,1020.62
2017-07-03T07:04:17.603Z,1020.68
2017-07-03T07:05:18.244Z,1020.58
2017-07-03T07:06:18.887Z,1020.64
2017-07-03T07:07:19.680Z,1020.65
2017-07-03T07:08:20.322Z,1020.64
2017-07-03T07:09:20.967Z,1020.65
2017-07-03T07:10:21.606Z,1020.67
2017-07-03T07:11:22.253Z,1020.61
2017-07-03T07:12:22.893Z,1020.66
2017-07-03T07:13:23.533Z,1020.64
2017-07-03T07:14:24.179Z,1020.67
2017-07-03T07:15:25.071Z,1020.64
2017-07-03T07:16:25.717Z,1020.65
2017-07-03T07:17:26.356Z,1020.62
2017-07-03T07:18:27.000Z,1020.55
2017-07-03T07:19:27.640Z,1020.62
2017-07-03T07:20:28.286Z,1020.69
2017-07-03T07:21:28.927Z,1020.65
2017-07-03T07:22:29.571Z,1020.65
2017-07-03T07:23:30.413Z,1020.68
2017-07-03T07:24:31.054Z,1020.66
2017-07-03T07:25:31.696Z,1020.70
2017-07-03T07:26:32.340Z,1020.71
2017-07-03T07:27:32.985Z,1020.74
2017-07-03T07:28:33.626Z,1020.65
2017-07-03T07:29:34.268Z,1020.66
2017-07-03T07:30:34.909Z,1020.64
2017-07-03T07:31:35.752Z,1020.64
2017-07-03T07:32:36.393Z,1020.65
2017-07-03T07:33:37.037Z,1020.76
2017-07-03T07:34:37.678Z,1020.64
2017-07-03T07:35:38.319Z,1020.59
2017-07-03T07:36:38.962Z,1020.66
2017-07-03T07:37:39.605Z,1020.61
2017-07-03T07:38:40.250Z,1020.61
2017-07-03T07:39:40.893Z,1020.63
2017-07-03T07:40:41.733Z,1020.63
2017-07-03T07:41:42.374Z,1020.57
2017-07-03T07:42:43.019Z,1020.69
2017-07-03T07:43:43.662Z,1020.64
2017-07-03T07:44:44.309Z,1020.64
2017-07-03T07:45:45.007Z,1020.63
2017-07-03T07:46:45.652Z,1020.67
2017-07-03T07:47:46.293Z,1020.67
2017-07-03T07:48:47.136Z,1020.65
2017-07-03T07:49:47.777Z,1020.61
2017-07-03T07:50:48.420Z,1020.66
2017-07-03T07:51:49.064Z,1020.71
2017-07-03T07:52:49.708Z,1020.75
2017-07-03T07:53:50.349Z,1020.68
2017-07-03T07:54:50.991Z,1020.65
2017-07-03T07:55:51.632Z,1020.73
2017-07-03T07:56:52.477Z,1020.75
2017-07-03T07:57:53.122Z,1020.64
2017-07-03T07:58:53.769Z,1020.70
2017-07-03T07:59:54.410Z,1020.59
2017-07-03T08:00:55.053Z,1020.65
2017-07-03T08:01:55.697Z,1020.57
2017-07-03T08:02:56.347Z,1020.60
2017-07-03T08:03:56.991Z,1020.57
2017-07-03T08:04:57.783Z,1020.62
2017-07-03T08:05:58.425Z,1020.57
2017-07-03T08:06:59.068Z,1020.64
2017-07-03T08:07:59.713Z,1020.59
2017-07-03T08:09:00.353Z,1020.59
2017-07-03T08:10:00.998Z,1020.62
2017-07-03T08:11:01.639Z,1020.60
2017-07-03T08:12:02.282Z,1020.60
2017-07-03T08:13:03.324Z,1020.57
2017-07-03T08:14:03.973Z,1020.61
2017-07-03T08:15:04.670Z,1020.59
2017-07-03T08:16:05.315Z,1020.55
2017-07-03T08:17:05.959Z,1020.52
2017-07-03T08:18:06.601Z,1020.58
2017-07-03T08:19:07.246Z,1020.59
2017-07-03T08:20:07.889Z,1020.58
2017-07-03T08:21:08.534Z,1020.55
2017-07-03T08:22:09.328Z,1020.55
2017-07-03T08:23:09.970Z,1020.49
2017-07-03T08:24:10.613Z,1020.49
2017-07-03T08:25:11.257Z,1020.44
2017-07-03T08:26:11.903Z,1020.51
2017-07-03T08:27:12.544Z,1020.54
2017-07-03T08:28:13.189Z,1020.50
2017-07-03T08:29:13.836Z,1020.53
2017-07-03T08:30:14.677Z,1020.45
2017-07-03T08:31:15.321Z,1020.44
2017-07-03T08:32:15.962Z,1020.45
2017-07-03T08:33:16.606Z,1020.44
2017-07-03T08:34:17.252Z,1020.48
2017-07-03T08:35:17.894Z,1020.48
2017-07-03T08:36:18.538Z,1020.41
2017-07-03T08:37:19.181Z,1020.39
2017-07-03T08:38:19.973Z,1020.45
2017-07-03T08:39:20.614Z,1020.45
2017-07-03T08:40:21.255Z,1020.46
2017-07-03T08:41:21.899Z,1020.38
2017-07-03T08:42:22.549Z,1020.46
2017-07-03T08:43:23.186Z,1020.42
2017-07-03T08:44:23.831Z,1020.41
2017-07-03T08:45:24.511Z,1020.33
2017-07-03T08:46:25.326Z,1020.34
2017-07-03T08:47:25.969Z,1020.37
2017-07-03T08:48:26.610Z,1020.38
2017-07-03T08:49:27.256Z,1020.36
2017-07-03T08:50:27.897Z,1020.35
2017-07-03T08:51:28.541Z,1020.25
2017-07-03T08:52:29.188Z,1020.28
2017-07-03T08:53:29.830Z,1020.32
2017-07-03T08:54:30.470Z,1020.38
2017-07-03T08:55:31.312Z,1020.22
2017-07-03T08:56:31.956Z,1020.40
2017-07-03T08:57:32.599Z,1020.37
2017-07-03T08:58:33.243Z,1020.27
2017-07-03T08:59:33.904Z,1020.18
2017-07-03T09:00:34.530Z,1020.23
2017-07-03T09:01:35.171Z,1020.25
2017-07-03T09:02:35.813Z,1020.28
2017-07-03T09:03:36.705Z,1020.27
2017-07-03T09:04:37.350Z,1020.33
2017-07-03T09:05:37.991Z,1020.16
2017-07-03T09:06:38.634Z,1020.22
2017-07-03T09:07:39.277Z,1020.16
2017-07-03T09:08:39.921Z,1020.18
2017-07-03T09:09:40.565Z,1020.13
2017-07-03T09:10:41.208Z,1020.15
2017-07-03T09:11:42.053Z,1020.19
2017-07-03T09:12:42.696Z,1020.15
2017-07-03T09:13:43.342Z,1020.17
2017-07-03T09:14:43.984Z,1020.11
2017-07-03T09:15:44.627Z,1020.17
2017-07-03T09:16:45.272Z,1020.13
2017-07-03T09:17:45.920Z,1020.10
2017-07-03T09:18:46.564Z,1020.13
2017-07-03T09:19:47.405Z,1020.18
2017-07-03T09:20:48.051Z,1020.13
2017-07-03T09:21:48.694Z,1020.15
2017-07-03T09:22:49.338Z,1020.09
2017-07-03T09:23:49.983Z,1020.13
2017-07-03T09:24:50.629Z,1020.10
2017-07-03T09:25:51.270Z,1020.14
2017-07-03T09:26:51.863Z,1020.12
2017-07-03T09:27:52.506Z,1020.09
2017-07-03T09:28:53.352Z,1020.16
2017-07-03T09:29:54.194Z,1020.14
2017-07-03T09:30:54.838Z,1020.12
2017-07-03T09:31:55.482Z,1020.07
2017-07-03T09:32:56.128Z,1020.10
2017-07-03T09:33:56.774Z,1020.11
2017-07-03T09:34:57.416Z,1020.12
2017-07-03T09:35:58.059Z,1020.04
2017-07-03T09:36:58.705Z,1020.04
2017-07-03T09:37:59.545Z,1020.06
2017-07-03T09:39:00.190Z,1020.09
2017-07-03T09:40:00.835Z,1020.10
2017-07-03T09:41:01.483Z,1020.06
2017-07-03T09:42:02.125Z,1020.06
2017-07-03T09:43:02.767Z,1020.05
2017-07-03T09:44:03.412Z,1020.09
2017-07-03T09:45:04.057Z,1020.15
2017-07-03T09:46:04.702Z,1020.02
2017-07-03T09:47:05.495Z,1020.10
2017-07-03T09:48:06.137Z,1020.06
2017-07-03T09:49:06.782Z,1020.05
2017-07-03T09:50:07.428Z,1020.07
2017-07-03T09:51:08.069Z,1020.19
2017-07-03T09:52:08.713Z,1020.12
2017-07-03T09:53:09.357Z,1020.06
2017-07-03T09:54:10.002Z,1020.11
2017-07-03T09:55:10.897Z,1020.14
2017-07-03T09:56:11.542Z,1020.09
2017-07-03T09:57:12.187Z,1020.14
2017-07-03T09:58:12.828Z,1020.22
2017-07-03T09:59:13.473Z,1020.15
2017-07-03T10:00:14.115Z,1020.17
2017-07-03T10:01:14.760Z,1020.06
2017-07-03T10:02:15.406Z,1020.13
2017-07-03T10:03:16.199Z,1020.12
2017-07-03T10:04:16.842Z,1020.12
2017-07-03T10:05:17.489Z,1020.14
2017-07-03T10:06:18.133Z,1020.10
2017-07-03T10:07:18.778Z,1020.12
2017-07-03T10:08:19.422Z,1020.17
2017-07-03T10:09:20.065Z,1020.11
2017-07-03T10:10:20.709Z,1020.15
2017-07-03T10:11:21.555Z,1020.04
2017-07-03T10:12:22.204Z,1020.06
2017-07-03T10:13:22.847Z,1020.09
2017-07-03T10:14:23.493Z,1020.10
2017-07-03T10:15:24.137Z,1020.16
2017-07-03T10:16:24.781Z,1020.09
2017-07-03T10:17:25.426Z,1020.05
2017-07-03T10:18:26.067Z,1020.05
2017-07-03T10:19:26.713Z,1020.09
2017-07-03T10:20:27.504Z,1019.98
2017-07-03T10:21:28.149Z,1020.03
2017-07-03T10:22:28.795Z,1020.03
2017-07-03T10:23:29.438Z,1020.04
2017-07-03T10:24:30.082Z,1020.04
2017-07-03T10:25:30.724Z,1020.02
2017-07-03T10:26:31.369Z,1020.06
2017-07-03T10:27:32.021Z,1020.01
2017-07-03T10:28:32.915Z,1020.01
2017-07-03T10:29:33.560Z,1019.92
2017-07-03T10:30:34.202Z,1019.96
2017-07-03T10:31:34.847Z,1019.94
2017-07-03T10:32:35.489Z,1019.95
2017-07-03T10:33:36.172Z,1019.92
2017-07-03T10:34:36.778Z,1019.90
2017-07-03T10:35:37.422Z,1019.99
2017-07-03T10:36:38.271Z,1019.98
2017-07-03T10:37:38.914Z,1019.96
2017-07-03T10:38:39.556Z,1019.92
2017-07-03T10:39:40.201Z,1019.95
2017-07-03T10:40:40.844Z,1019.88
2017-07-03T10:41:41.490Z,1019.93
2017-07-03T10:42:42.135Z,1019.92
2017-07-03T10:43:42.781Z,1019.89
2017-07-03T10:44:43.626Z,1019.95
2017-07-03T10:45:44.271Z,1020.00
2017-07-03T10:46:44.917Z,1019.95
2017-07-03T10:47:45.560Z,1019.94
2017-07-03T10:48:46.207Z,1019.87
2017-07-03T10:49:46.852Z,1019.93
2017-07-03T10:50:47.496Z,1019.95
2017-07-03T10:51:48.344Z,1019.94
2017-07-03T10:52:48.986Z,1019.91
2017-07-03T10:53:49.632Z,1019.89
2017-07-03T10:54:50.274Z,1019.94
2017-07-03T10:55:50.917Z,1019.91
2017-07-03T10:56:51.561Z,1019.89
2017-07-03T10:57:52.211Z,1019.87
2017-07-03T10:58:52.851Z,1019.90
2017-07-03T10:59:53.497Z,1019.82
2017-07-03T11:00:54.342Z,1019.91
2017-07-03T11:01:55.048Z,1019.88
2017-07-03T11:02:55.692Z,1019.87
2017-07-03T11:03:56.336Z,1019.88
2017-07-03T11:04:56.986Z,1019.87
2017-07-03T11:05:57.631Z,1019.91
2017-07-03T11:06:58.278Z,1019.85
2017-07-03T11:07:58.921Z,1019.88
2017-07-03T11:08:59.715Z,1019.78
2017-07-03T11:10:00.360Z,1019.82
2017-07-03T11:11:01.007Z,1019.93
2017-07-03T11:12:01.647Z,1019.77
2017-07-03T11:13:02.298Z,1019.82
2017-07-03T11:14:02.939Z,1019.75
2017-07-03T11:15:03.585Z,1019.81
2017-07-03T11:16:04.229Z,1019.87
2017-07-03T11:17:05.082Z,1019.77
2017-07-03T11:18:05.718Z,1019.76
2017-07-03T11:19:06.360Z,1019.77
2017-07-03T11:20:07.006Z,1019.74
2017-07-03T11:21:07.651Z,1019.74
2017-07-03T11:22:08.297Z,1019.65
2017-07-03T11:23:08.943Z,1019.70
2017-07-03T11:24:09.585Z,1019.73
2017-07-03T11:25:10.379Z,1019.80
2017-07-03T11:26:11.026Z,1019.81
2017-07-03T11:27:11.670Z,1019.78
2017-07-03T11:28:12.314Z,1019.73
2017-07-03T11:29:12.960Z,1019.75
2017-07-03T11:30:13.601Z,1019.69
2017-07-03T11:31:14.244Z,1019.69
2017-07-03T11:32:14.890Z,1019.73
2017-07-03T11:33:15.785Z,1019.74
2017-07-03T11:34:16.429Z,1019.71
2017-07-03T11:35:17.074Z,1019.63
2017-07-03T11:36:17.719Z,1019.68
2017-07-03T11:37:18.363Z,1019.61
2017-07-03T11:38:19.008Z,1019.65
2017-07-03T11:39:19.649Z,1019.61
2017-07-03T11:40:20.295Z,1019.54
2017-07-03T11:41:20.935Z,1019.59
2017-07-03T11:42:21.830Z,1019.64
2017-07-03T11:43:22.477Z,1019.59
2017-07-03T11:44:23.122Z,1019.59
2017-07-03T11:45:23.766Z,1019.58
2017-07-03T11:46:24.409Z,1019.66
2017-07-03T11:47:25.054Z,1019.49
2017-07-03T11:48:25.696Z,1019.54
2017-07-03T11:49:26.339Z,1019.45
2017-07-03T11:50:27.185Z,1019.46
2017-07-03T11:51:27.829Z,1019.48
2017-07-03T11:52:28.471Z,1019.48
2017-07-03T11:53:29.265Z,1019.47
2017-07-03T11:54:29.913Z,1019.42
2017-07-03T11:55:30.555Z,1019.43
2017-07-03T11:56:31.197Z,1019.42
2017-07-03T11:57:31.842Z,1019.43
2017-07-03T11:58:32.488Z,1019.35
2017-07-03T11:59:33.132Z,1019.38
2017-07-03T12:00:33.774Z,1019.33
2017-07-03T12:01:34.722Z,1019.35
2017-07-03T12:02:35.366Z,1019.34
2017-07-03T12:03:36.013Z,1019.36
2017-07-03T12:04:36.604Z,1019.32
2017-07-03T12:05:37.248Z,1019.32
2017-07-03T12:06:37.893Z,1019.27
2017-07-03T12:07:38.535Z,1019.26
2017-07-03T12:08:39.181Z,1019.26
2017-07-03T12:09:39.825Z,1019.24
2017-07-03T12:10:40.670Z,1019.21
2017-07-03T12:11:41.315Z,1019.12
2017-07-03T12:12:41.958Z,1019.26
2017-07-03T12:13:42.601Z,1019.27